KMHS/MHS METAR and TAF weather

Enter ICAO airport designator
Station Type Date Time Source
KMHS METAR 2020/07/02 18:56 UTC NOAA

KMHS 021856Z AUTO VRB03KT 10SM CLR 23/01 A2998 RMK AO2 SLP145 T02280011


Station Type Date Time Source
KMHS Decoded METAR 2020/07/02 18:56 UTC NOAA

MOUNT SHASTA, CA, United States (KMHS) 41-19N 122-19W 1078M
Jul 02, 2020 - 02:56 PM EDT / 2020.07.02 1856 UTC
Wind: Variable at 3 MPH (3 KT):0
Visibility: 10 mile(s):0
Sky conditions: clear
Temperature: 73.0 F (22.8 C)
Dew Point: 34.0 F (1.1 C)
Relative Humidity: 23%
Pressure (altimeter): 29.98 in. Hg (1015 hPa)
ob: KMHS 021856Z AUTO VRB03KT 10SM CLR 23/01 A2998 RMK AO2 SLP145 T02280011
cycle: 19

Station Type Date Time Source
KMHS TAF UTC NOAA

Error!

Example: see airport list